sensor_id;sensor_type;location;lat;lon;timestamp;P1;durP1;ratioP1;P2;durP2;ratioP2
36189;SDS011;22232;50.914;13.858;2022-09-09T00:01:04;2.67;;;1.15;;
36189;SDS011;22232;50.914;13.858;2022-09-09T00:03:40;1.42;;;0.80;;
36189;SDS011;22232;50.914;13.858;2022-09-09T00:09:24;2.65;;;1.00;;
36189;SDS011;22232;50.914;13.858;2022-09-09T00:17:42;1.20;;;1.00;;
36189;SDS011;22232;50.914;13.858;2022-09-09T00:20:34;2.95;;;0.90;;
36189;SDS011;22232;50.914;13.858;2022-09-09T00:23:11;2.40;;;1.02;;
36189;SDS011;22232;50.914;13.858;2022-09-09T00:28:24;1.85;;;0.88;;
36189;SDS011;22232;50.914;13.858;2022-09-09T00:30:54;2.40;;;0.90;;
36189;SDS011;22232;50.914;13.858;2022-09-09T00:33:24;1.98;;;1.05;;
36189;SDS011;22232;50.914;13.858;2022-09-09T00:35:54;6.03;;;1.15;;
36189;SDS011;22232;50.914;13.858;2022-09-09T00:46:59;1.20;;;0.85;;
36189;SDS011;22232;50.914;13.858;2022-09-09T00:55:19;4.13;;;0.90;;
36189;SDS011;22232;50.914;13.858;2022-09-09T00:57:54;1.63;;;0.85;;
36189;SDS011;22232;50.914;13.858;2022-09-09T01:00:35;2.13;;;0.90;;
36189;SDS011;22232;50.914;13.858;2022-09-09T01:10:53;1.88;;;0.80;;
36189;SDS011;22232;50.914;13.858;2022-09-09T01:13:28;4.13;;;0.95;;
36189;SDS011;22232;50.914;13.858;2022-09-09T01:16:01;2.17;;;1.10;;
36189;SDS011;22232;50.914;13.858;2022-09-09T01:18:38;2.93;;;1.40;;
36189;SDS011;22232;50.914;13.858;2022-09-09T01:26:54;3.70;;;0.90;;
36189;SDS011;22232;50.914;13.858;2022-09-09T01:29:26;1.65;;;1.10;;
36189;SDS011;22232;50.914;13.858;2022-09-09T01:34:22;3.35;;;0.90;;
36189;SDS011;22232;50.914;13.858;2022-09-09T01:36:59;2.33;;;1.13;;
36189;SDS011;22232;50.914;13.858;2022-09-09T01:39:32;8.73;;;1.45;;
36189;SDS011;22232;50.914;13.858;2022-09-09T01:42:06;2.17;;;0.93;;
36189;SDS011;22232;50.914;13.858;2022-09-09T01:44:36;2.30;;;0.98;;
36189;SDS011;22232;50.914;13.858;2022-09-09T01:47:05;2.92;;;0.77;;
36189;SDS011;22232;50.914;13.858;2022-09-09T01:49:39;7.43;;;1.08;;
36189;SDS011;22232;50.914;13.858;2022-09-09T01:52:16;3.22;;;0.82;;
36189;SDS011;22232;50.914;13.858;2022-09-09T01:54:44;2.28;;;1.05;;
36189;SDS011;22232;50.914;13.858;2022-09-09T01:57:17;3.15;;;0.80;;
36189;SDS011;22232;50.914;13.858;2022-09-09T01:59:54;2.63;;;1.08;;
36189;SDS011;22232;50.914;13.858;2022-09-09T02:02:30;3.70;;;1.20;;
36189;SDS011;22232;50.914;13.858;2022-09-09T02:07:49;3.35;;;1.10;;
36189;SDS011;22232;50.914;13.858;2022-09-09T02:10:45;3.22;;;1.20;;
36189;SDS011;22232;50.914;13.858;2022-09-09T02:13:32;1.10;;;0.82;;
36189;SDS011;22232;50.914;13.858;2022-09-09T02:24:05;3.38;;;1.20;;
36189;SDS011;22232;50.914;13.858;2022-09-09T02:26:44;2.28;;;0.70;;
36189;SDS011;22232;50.914;13.858;2022-09-09T02:29:31;2.35;;;0.75;;
36189;SDS011;22232;50.914;13.858;2022-09-09T02:32:06;2.47;;;1.10;;
36189;SDS011;22232;50.914;13.858;2022-09-09T02:34:42;1.40;;;0.77;;
36189;SDS011;22232;50.914;13.858;2022-09-09T02:37:17;4.25;;;0.90;;
36189;SDS011;22232;50.914;13.858;2022-09-09T02:39:51;3.28;;;0.70;;
36189;SDS011;22232;50.914;13.858;2022-09-09T02:42:21;3.65;;;1.08;;
36189;SDS011;22232;50.914;13.858;2022-09-09T02:44:52;6.22;;;1.05;;
36189;SDS011;22232;50.914;13.858;2022-09-09T02:47:23;2.67;;;0.80;;
36189;SDS011;22232;50.914;13.858;2022-09-09T02:56:04;2.30;;;0.82;;
36189;SDS011;22232;50.914;13.858;2022-09-09T02:58:17;4.15;;;0.90;;
36189;SDS011;22232;50.914;13.858;2022-09-09T03:00:57;3.85;;;0.95;;
36189;SDS011;22232;50.914;13.858;2022-09-09T03:03:26;1.73;;;0.82;;
36189;SDS011;22232;50.914;13.858;2022-09-09T03:05:55;1.35;;;1.05;;
36189;SDS011;22232;50.914;13.858;2022-09-09T03:08:26;3.47;;;0.90;;
36189;SDS011;22232;50.914;13.858;2022-09-09T03:10:58;5.43;;;1.08;;
36189;SDS011;22232;50.914;13.858;2022-09-09T03:13:31;3.15;;;0.93;;
36189;SDS011;22232;50.914;13.858;2022-09-09T03:15:59;2.13;;;0.90;;
36189;SDS011;22232;50.914;13.858;2022-09-09T03:18:30;2.25;;;0.90;;
36189;SDS011;22232;50.914;13.858;2022-09-09T03:20:57;1.67;;;1.00;;
36189;SDS011;22232;50.914;13.858;2022-09-09T03:23:26;1.95;;;0.80;;
36189;SDS011;22232;50.914;13.858;2022-09-09T03:25:56;1.58;;;0.75;;
36189;SDS011;22232;50.914;13.858;2022-09-09T03:28:35;1.88;;;0.57;;
36189;SDS011;22232;50.914;13.858;2022-09-09T03:31:04;4.50;;;0.90;;
36189;SDS011;22232;50.914;13.858;2022-09-09T03:33:38;4.03;;;1.08;;
36189;SDS011;22232;50.914;13.858;2022-09-09T03:36:11;4.38;;;0.88;;
36189;SDS011;22232;50.914;13.858;2022-09-09T03:38:39;3.95;;;0.80;;
36189;SDS011;22232;50.914;13.858;2022-09-09T03:41:07;2.05;;;0.75;;
36189;SDS011;22232;50.914;13.858;2022-09-09T03:43:36;3.17;;;1.15;;
36189;SDS011;22232;50.914;13.858;2022-09-09T03:46:04;2.90;;;0.85;;
36189;SDS011;22232;50.914;13.858;2022-09-09T03:48:32;1.50;;;0.77;;
36189;SDS011;22232;50.914;13.858;2022-09-09T03:51:00;4.00;;;1.10;;
36189;SDS011;22232;50.914;13.858;2022-09-09T03:53:31;2.95;;;0.90;;
36189;SDS011;22232;50.914;13.858;2022-09-09T03:56:02;3.25;;;0.88;;
36189;SDS011;22232;50.914;13.858;2022-09-09T03:58:31;4.00;;;1.02;;
36189;SDS011;22232;50.914;13.858;2022-09-09T04:01:06;3.25;;;1.13;;
36189;SDS011;22232;50.914;13.858;2022-09-09T04:03:37;3.95;;;1.08;;
36189;SDS011;22232;50.914;13.858;2022-09-09T04:06:05;4.32;;;0.85;;
36189;SDS011;22232;50.914;13.858;2022-09-09T04:08:34;3.28;;;0.85;;
36189;SDS011;22232;50.914;13.858;2022-09-09T04:11:03;2.15;;;0.73;;
36189;SDS011;22232;50.914;13.858;2022-09-09T04:13:35;2.97;;;0.82;;
36189;SDS011;22232;50.914;13.858;2022-09-09T04:16:07;3.97;;;0.98;;
36189;SDS011;22232;50.914;13.858;2022-09-09T04:18:38;1.85;;;0.73;;
36189;SDS011;22232;50.914;13.858;2022-09-09T04:21:07;3.33;;;1.00;;
36189;SDS011;22232;50.914;13.858;2022-09-09T04:23:36;4.28;;;0.80;;
36189;SDS011;22232;50.914;13.858;2022-09-09T04:26:04;1.52;;;0.90;;
36189;SDS011;22232;50.914;13.858;2022-09-09T04:28:34;4.07;;;0.80;;
36189;SDS011;22232;50.914;13.858;2022-09-09T04:31:06;1.73;;;0.68;;
36189;SDS011;22232;50.914;13.858;2022-09-09T04:33:38;4.75;;;0.82;;
36189;SDS011;22232;50.914;13.858;2022-09-09T04:36:08;2.97;;;0.80;;
36189;SDS011;22232;50.914;13.858;2022-09-09T04:38:36;4.13;;;0.65;;
36189;SDS011;22232;50.914;13.858;2022-09-09T04:41:04;3.22;;;0.75;;
36189;SDS011;22232;50.914;13.858;2022-09-09T04:43:34;1.30;;;0.70;;
36189;SDS011;22232;50.914;13.858;2022-09-09T04:46:04;3.75;;;0.80;;
36189;SDS011;22232;50.914;13.858;2022-09-09T04:48:33;1.98;;;0.60;;
36189;SDS011;22232;50.914;13.858;2022-09-09T04:51:04;4.15;;;0.70;;
36189;SDS011;22232;50.914;13.858;2022-09-09T04:53:34;3.45;;;0.82;;
36189;SDS011;22232;50.914;13.858;2022-09-09T04:58:35;3.53;;;0.68;;
36189;SDS011;22232;50.914;13.858;2022-09-09T05:01:06;2.45;;;0.50;;
36189;SDS011;22232;50.914;13.858;2022-09-09T05:03:37;2.17;;;0.60;;
36189;SDS011;22232;50.914;13.858;2022-09-09T05:06:08;2.72;;;0.60;;
36189;SDS011;22232;50.914;13.858;2022-09-09T05:08:44;4.68;;;1.08;;
36189;SDS011;22232;50.914;13.858;2022-09-09T05:11:19;2.25;;;0.90;;
36189;SDS011;22232;50.914;13.858;2022-09-09T05:13:53;1.45;;;0.88;;
36189;SDS011;22232;50.914;13.858;2022-09-09T05:16:21;2.70;;;0.82;;
36189;SDS011;22232;50.914;13.858;2022-09-09T05:18:50;1.58;;;0.80;;
36189;SDS011;22232;50.914;13.858;2022-09-09T05:21:20;1.98;;;0.80;;
36189;SDS011;22232;50.914;13.858;2022-09-09T05:23:50;2.17;;;0.73;;
36189;SDS011;22232;50.914;13.858;2022-09-09T05:26:20;5.07;;;0.77;;
36189;SDS011;22232;50.914;13.858;2022-09-09T05:28:50;1.92;;;0.63;;
36189;SDS011;22232;50.914;13.858;2022-09-09T05:31:18;2.50;;;0.63;;
36189;SDS011;22232;50.914;13.858;2022-09-09T05:33:49;2.45;;;0.70;;
36189;SDS011;22232;50.914;13.858;2022-09-09T05:36:18;2.45;;;0.60;;
36189;SDS011;22232;50.914;13.858;2022-09-09T05:38:51;3.63;;;0.70;;
36189;SDS011;22232;50.914;13.858;2022-09-09T05:41:21;0.52;;;0.50;;
36189;SDS011;22232;50.914;13.858;2022-09-09T05:43:53;3.92;;;0.63;;
36189;SDS011;22232;50.914;13.858;2022-09-09T05:46:22;3.63;;;0.85;;
36189;SDS011;22232;50.914;13.858;2022-09-09T05:48:53;3.00;;;0.60;;
36189;SDS011;22232;50.914;13.858;2022-09-09T05:51:27;3.63;;;1.02;;
36189;SDS011;22232;50.914;13.858;2022-09-09T05:54:01;3.88;;;1.30;;
36189;SDS011;22232;50.914;13.858;2022-09-09T05:56:32;3.55;;;0.75;;
36189;SDS011;22232;50.914;13.858;2022-09-09T05:59:00;1.52;;;0.70;;
36189;SDS011;22232;50.914;13.858;2022-09-09T06:01:32;2.10;;;0.70;;
36189;SDS011;22232;50.914;13.858;2022-09-09T06:04:02;2.33;;;0.60;;
36189;SDS011;22232;50.914;13.858;2022-09-09T06:06:35;2.42;;;0.68;;
36189;SDS011;22232;50.914;13.858;2022-09-09T06:09:09;1.88;;;0.70;;
36189;SDS011;22232;50.914;13.858;2022-09-09T06:11:40;2.55;;;1.20;;
36189;SDS011;22232;50.914;13.858;2022-09-09T06:14:10;1.40;;;0.65;;
36189;SDS011;22232;50.914;13.858;2022-09-09T06:16:39;1.95;;;0.70;;
36189;SDS011;22232;50.914;13.858;2022-09-09T06:19:15;1.60;;;0.60;;
36189;SDS011;22232;50.914;13.858;2022-09-09T06:21:43;2.80;;;0.90;;
36189;SDS011;22232;50.914;13.858;2022-09-09T06:24:12;4.25;;;0.82;;
36189;SDS011;22232;50.914;13.858;2022-09-09T06:26:41;1.58;;;0.60;;
36189;SDS011;22232;50.914;13.858;2022-09-09T06:29:16;2.38;;;0.73;;
36189;SDS011;22232;50.914;13.858;2022-09-09T06:31:44;0.57;;;0.50;;
36189;SDS011;22232;50.914;13.858;2022-09-09T06:34:15;3.10;;;0.82;;
36189;SDS011;22232;50.914;13.858;2022-09-09T06:36:47;2.80;;;0.88;;
36189;SDS011;22232;50.914;13.858;2022-09-09T06:39:14;3.70;;;1.02;;
36189;SDS011;22232;50.914;13.858;2022-09-09T06:41:44;3.15;;;0.90;;
36189;SDS011;22232;50.914;13.858;2022-09-09T06:44:34;2.22;;;1.05;;
36189;SDS011;22232;50.914;13.858;2022-09-09T06:47:05;4.18;;;1.30;;
36189;SDS011;22232;50.914;13.858;2022-09-09T06:49:33;2.22;;;1.00;;
36189;SDS011;22232;50.914;13.858;2022-09-09T06:52:05;1.77;;;0.95;;
36189;SDS011;22232;50.914;13.858;2022-09-09T06:54:33;2.78;;;1.08;;
36189;SDS011;22232;50.914;13.858;2022-09-09T06:57:05;2.83;;;1.05;;
36189;SDS011;22232;50.914;13.858;2022-09-09T06:59:55;1.30;;;0.85;;
36189;SDS011;22232;50.914;13.858;2022-09-09T07:02:24;3.45;;;0.98;;
36189;SDS011;22232;50.914;13.858;2022-09-09T07:04:52;4.13;;;1.30;;
36189;SDS011;22232;50.914;13.858;2022-09-09T07:07:20;5.03;;;1.30;;
36189;SDS011;22232;50.914;13.858;2022-09-09T07:09:48;3.63;;;1.30;;
36189;SDS011;22232;50.914;13.858;2022-09-09T07:12:16;4.43;;;1.15;;
36189;SDS011;22232;50.914;13.858;2022-09-09T07:14:52;3.17;;;1.23;;
36189;SDS011;22232;50.914;13.858;2022-09-09T07:17:19;3.60;;;1.20;;
36189;SDS011;22232;50.914;13.858;2022-09-09T07:19:47;4.10;;;0.98;;
36189;SDS011;22232;50.914;13.858;2022-09-09T07:22:16;2.58;;;1.15;;
36189;SDS011;22232;50.914;13.858;2022-09-09T07:24:44;2.90;;;0.98;;
36189;SDS011;22232;50.914;13.858;2022-09-09T07:27:13;3.20;;;0.90;;
36189;SDS011;22232;50.914;13.858;2022-09-09T07:29:41;3.45;;;1.20;;
36189;SDS011;22232;50.914;13.858;2022-09-09T07:32:10;3.30;;;1.05;;
36189;SDS011;22232;50.914;13.858;2022-09-09T07:34:38;3.70;;;0.93;;
36189;SDS011;22232;50.914;13.858;2022-09-09T07:37:05;3.83;;;1.10;;
36189;SDS011;22232;50.914;13.858;2022-09-09T07:39:35;4.03;;;1.08;;
36189;SDS011;22232;50.914;13.858;2022-09-09T07:42:02;3.28;;;1.20;;
36189;SDS011;22232;50.914;13.858;2022-09-09T07:44:31;1.85;;;0.90;;
36189;SDS011;22232;50.914;13.858;2022-09-09T07:47:10;3.08;;;0.98;;
36189;SDS011;22232;50.914;13.858;2022-09-09T07:49:49;3.70;;;1.00;;
36189;SDS011;22232;50.914;13.858;2022-09-09T07:52:22;1.77;;;0.82;;
36189;SDS011;22232;50.914;13.858;2022-09-09T07:54:55;6.18;;;0.90;;
36189;SDS011;22232;50.914;13.858;2022-09-09T07:57:24;6.80;;;1.33;;
36189;SDS011;22232;50.914;13.858;2022-09-09T07:59:53;2.28;;;0.88;;
36189;SDS011;22232;50.914;13.858;2022-09-09T08:02:20;4.40;;;0.85;;
36189;SDS011;22232;50.914;13.858;2022-09-09T08:04:49;1.92;;;0.80;;
36189;SDS011;22232;50.914;13.858;2022-09-09T08:07:18;3.75;;;1.02;;
36189;SDS011;22232;50.914;13.858;2022-09-09T08:09:52;2.50;;;1.17;;
36189;SDS011;22232;50.914;13.858;2022-09-09T08:14:55;1.67;;;0.75;;
36189;SDS011;22232;50.914;13.858;2022-09-09T08:17:27;3.13;;;0.95;;
36189;SDS011;22232;50.914;13.858;2022-09-09T08:19:56;7.40;;;1.15;;
36189;SDS011;22232;50.914;13.858;2022-09-09T08:22:26;2.75;;;0.93;;
36189;SDS011;22232;50.914;13.858;2022-09-09T08:24:54;1.48;;;0.85;;
36189;SDS011;22232;50.914;13.858;2022-09-09T08:27:23;2.85;;;0.80;;
36189;SDS011;22232;50.914;13.858;2022-09-09T08:29:53;2.58;;;0.73;;
36189;SDS011;22232;50.914;13.858;2022-09-09T08:32:20;2.22;;;1.30;;
36189;SDS011;22232;50.914;13.858;2022-09-09T08:34:48;3.80;;;0.77;;
36189;SDS011;22232;50.914;13.858;2022-09-09T08:37:23;3.28;;;1.10;;
36189;SDS011;22232;50.914;13.858;2022-09-09T08:39:50;2.75;;;0.80;;
36189;SDS011;22232;50.914;13.858;2022-09-09T08:42:44;2.72;;;1.08;;
36189;SDS011;22232;50.914;13.858;2022-09-09T08:47:55;2.42;;;0.90;;
36189;SDS011;22232;50.914;13.858;2022-09-09T08:50:38;1.95;;;1.00;;
36189;SDS011;22232;50.914;13.858;2022-09-09T08:53:20;4.75;;;1.02;;
36189;SDS011;22232;50.914;13.858;2022-09-09T08:55:57;2.90;;;1.00;;
36189;SDS011;22232;50.914;13.858;2022-09-09T08:58:46;2.13;;;1.00;;
36189;SDS011;22232;50.914;13.858;2022-09-09T09:01:32;2.65;;;1.02;;
36189;SDS011;22232;50.914;13.858;2022-09-09T09:12:58;2.50;;;1.30;;
36189;SDS011;22232;50.914;13.858;2022-09-09T09:15:31;4.25;;;1.23;;
36189;SDS011;22232;50.914;13.858;2022-09-09T09:18:04;5.22;;;1.40;;
36189;SDS011;22232;50.914;13.858;2022-09-09T09:23:15;2.53;;;1.10;;
36189;SDS011;22232;50.914;13.858;2022-09-09T09:25:48;3.97;;;1.40;;
36189;SDS011;22232;50.914;13.858;2022-09-09T09:28:23;6.30;;;1.30;;
36189;SDS011;22232;50.914;13.858;2022-09-09T09:33:36;5.05;;;1.67;;
36189;SDS011;22232;50.914;13.858;2022-09-09T09:36:13;4.05;;;1.60;;
36189;SDS011;22232;50.914;13.858;2022-09-09T09:38:54;4.68;;;1.58;;
36189;SDS011;22232;50.914;13.858;2022-09-09T09:41:44;4.32;;;1.30;;
36189;SDS011;22232;50.914;13.858;2022-09-09T09:44:24;4.45;;;1.80;;
36189;SDS011;22232;50.914;13.858;2022-09-09T09:50:19;2.47;;;1.40;;
36189;SDS011;22232;50.914;13.858;2022-09-09T09:52:58;2.75;;;1.05;;
36189;SDS011;22232;50.914;13.858;2022-09-09T09:55:44;5.78;;;1.40;;
36189;SDS011;22232;50.914;13.858;2022-09-09T09:58:19;5.97;;;1.35;;
36189;SDS011;22232;50.914;13.858;2022-09-09T10:00:49;4.20;;;1.52;;
36189;SDS011;22232;50.914;13.858;2022-09-09T10:03:32;3.45;;;1.98;;
36189;SDS011;22232;50.914;13.858;2022-09-09T10:06:05;2.55;;;1.55;;
36189;SDS011;22232;50.914;13.858;2022-09-09T10:08:34;5.35;;;1.60;;
36189;SDS011;22232;50.914;13.858;2022-09-09T10:11:38;2.60;;;1.38;;
36189;SDS011;22232;50.914;13.858;2022-09-09T10:20:13;3.03;;;1.50;;
36189;SDS011;22232;50.914;13.858;2022-09-09T10:22:51;5.47;;;1.67;;
36189;SDS011;22232;50.914;13.858;2022-09-09T10:25:31;3.90;;;1.27;;
36189;SDS011;22232;50.914;13.858;2022-09-09T10:28:20;2.30;;;1.13;;
36189;SDS011;22232;50.914;13.858;2022-09-09T10:34:33;4.78;;;1.67;;
36189;SDS011;22232;50.914;13.858;2022-09-09T10:36:34;3.35;;;1.40;;
36189;SDS011;22232;50.914;13.858;2022-09-09T10:50:33;3.78;;;1.88;;
36189;SDS011;22232;50.914;13.858;2022-09-09T10:56:08;3.90;;;1.63;;
36189;SDS011;22232;50.914;13.858;2022-09-09T10:58:44;4.88;;;1.27;;
36189;SDS011;22232;50.914;13.858;2022-09-09T11:01:27;3.65;;;1.40;;
36189;SDS011;22232;50.914;13.858;2022-09-09T11:04:09;5.03;;;1.77;;
36189;SDS011;22232;50.914;13.858;2022-09-09T11:06:39;7.22;;;1.67;;
36189;SDS011;22232;50.914;13.858;2022-09-09T11:09:17;8.57;;;2.20;;
36189;SDS011;22232;50.914;13.858;2022-09-09T11:11:53;9.35;;;2.10;;
36189;SDS011;22232;50.914;13.858;2022-09-09T11:17:24;5.18;;;1.40;;
36189;SDS011;22232;50.914;13.858;2022-09-09T11:19:57;4.22;;;1.50;;
36189;SDS011;22232;50.914;13.858;2022-09-09T11:24:58;5.72;;;1.75;;
36189;SDS011;22232;50.914;13.858;2022-09-09T11:27:36;4.15;;;1.50;;
36189;SDS011;22232;50.914;13.858;2022-09-09T11:30:18;4.70;;;1.63;;
36189;SDS011;22232;50.914;13.858;2022-09-09T11:33:16;6.90;;;3.88;;
36189;SDS011;22232;50.914;13.858;2022-09-09T11:41:40;6.03;;;1.52;;
36189;SDS011;22232;50.914;13.858;2022-09-09T11:44:12;3.10;;;1.40;;
36189;SDS011;22232;50.914;13.858;2022-09-09T11:46:45;4.82;;;1.55;;
36189;SDS011;22232;50.914;13.858;2022-09-09T11:49:30;3.78;;;1.40;;
36189;SDS011;22232;50.914;13.858;2022-09-09T11:54:54;4.68;;;1.30;;
36189;SDS011;22232;50.914;13.858;2022-09-09T11:57:26;2.58;;;1.35;;
36189;SDS011;22232;50.914;13.858;2022-09-09T12:00:00;2.85;;;1.30;;
36189;SDS011;22232;50.914;13.858;2022-09-09T12:02:37;7.70;;;2.25;;
36189;SDS011;22232;50.914;13.858;2022-09-09T12:05:17;7.63;;;2.15;;
36189;SDS011;22232;50.914;13.858;2022-09-09T12:08:06;2.80;;;1.30;;
36189;SDS011;22232;50.914;13.858;2022-09-09T12:10:40;4.32;;;1.48;;
36189;SDS011;22232;50.914;13.858;2022-09-09T12:13:18;4.93;;;1.80;;
36189;SDS011;22232;50.914;13.858;2022-09-09T12:15:50;2.67;;;1.73;;
36189;SDS011;22232;50.914;13.858;2022-09-09T12:18:21;1.95;;;1.60;;
36189;SDS011;22232;50.914;13.858;2022-09-09T12:20:54;5.40;;;1.70;;
36189;SDS011;22232;50.914;13.858;2022-09-09T12:26:24;4.82;;;1.60;;
36189;SDS011;22232;50.914;13.858;2022-09-09T12:29:28;2.75;;;1.33;;
36189;SDS011;22232;50.914;13.858;2022-09-09T12:32:02;4.38;;;1.52;;
36189;SDS011;22232;50.914;13.858;2022-09-09T12:34:46;3.05;;;1.40;;
36189;SDS011;22232;50.914;13.858;2022-09-09T12:37:23;4.28;;;1.55;;
36189;SDS011;22232;50.914;13.858;2022-09-09T12:40:28;2.90;;;1.30;;
36189;SDS011;22232;50.914;13.858;2022-09-09T12:43:15;4.53;;;1.50;;
36189;SDS011;22232;50.914;13.858;2022-09-09T12:45:49;3.50;;;1.17;;
36189;SDS011;22232;50.914;13.858;2022-09-09T12:48:27;2.88;;;1.63;;
36189;SDS011;22232;50.914;13.858;2022-09-09T12:51:02;2.83;;;1.20;;
36189;SDS011;22232;50.914;13.858;2022-09-09T12:53:36;4.80;;;1.25;;
36189;SDS011;22232;50.914;13.858;2022-09-09T12:56:07;3.55;;;1.42;;
36189;SDS011;22232;50.914;13.858;2022-09-09T12:58:37;4.07;;;1.98;;
36189;SDS011;22232;50.914;13.858;2022-09-09T13:01:17;3.35;;;1.42;;
36189;SDS011;22232;50.914;13.858;2022-09-09T13:03:56;2.72;;;1.15;;
36189;SDS011;22232;50.914;13.858;2022-09-09T13:06:26;3.88;;;1.40;;
36189;SDS011;22232;50.914;13.858;2022-09-09T13:08:59;3.40;;;1.48;;
36189;SDS011;22232;50.914;13.858;2022-09-09T13:14:04;2.72;;;1.20;;
36189;SDS011;22232;50.914;13.858;2022-09-09T13:16:32;4.43;;;1.40;;
36189;SDS011;22232;50.914;13.858;2022-09-09T13:19:14;4.45;;;1.30;;
36189;SDS011;22232;50.914;13.858;2022-09-09T13:21:44;2.22;;;1.23;;
36189;SDS011;22232;50.914;13.858;2022-09-09T13:30:22;1.58;;;1.00;;
36189;SDS011;22232;50.914;13.858;2022-09-09T13:35:32;2.33;;;1.10;;
36189;SDS011;22232;50.914;13.858;2022-09-09T13:38:07;1.48;;;0.88;;
36189;SDS011;22232;50.914;13.858;2022-09-09T13:40:37;2.58;;;1.30;;
36189;SDS011;22232;50.914;13.858;2022-09-09T13:43:05;3.83;;;1.13;;
36189;SDS011;22232;50.914;13.858;2022-09-09T13:45:52;3.65;;;1.55;;
36189;SDS011;22232;50.914;13.858;2022-09-09T13:48:25;4.30;;;1.00;;
36189;SDS011;22232;50.914;13.858;2022-09-09T13:50:54;2.30;;;1.20;;
36189;SDS011;22232;50.914;13.858;2022-09-09T13:53:25;5.47;;;1.13;;
36189;SDS011;22232;50.914;13.858;2022-09-09T13:55:54;2.10;;;1.30;;
36189;SDS011;22232;50.914;13.858;2022-09-09T13:58:22;2.38;;;0.70;;
36189;SDS011;22232;50.914;13.858;2022-09-09T14:00:50;3.72;;;1.23;;
36189;SDS011;22232;50.914;13.858;2022-09-09T14:03:19;3.88;;;0.90;;
36189;SDS011;22232;50.914;13.858;2022-09-09T14:05:47;4.30;;;1.30;;
36189;SDS011;22232;50.914;13.858;2022-09-09T14:08:20;7.05;;;1.00;;
36189;SDS011;22232;50.914;13.858;2022-09-09T14:10:50;4.53;;;1.30;;
36189;SDS011;22232;50.914;13.858;2022-09-09T14:13:19;1.75;;;1.00;;
36189;SDS011;22232;50.914;13.858;2022-09-09T14:15:48;1.45;;;1.10;;
36189;SDS011;22232;50.914;13.858;2022-09-09T14:18:16;2.63;;;1.10;;
36189;SDS011;22232;50.914;13.858;2022-09-09T14:20:44;2.33;;;1.10;;
36189;SDS011;22232;50.914;13.858;2022-09-09T14:23:12;3.03;;;1.23;;
36189;SDS011;22232;50.914;13.858;2022-09-09T14:25:40;2.00;;;0.95;;
36189;SDS011;22232;50.914;13.858;2022-09-09T14:28:12;5.15;;;1.10;;
36189;SDS011;22232;50.914;13.858;2022-09-09T14:30:41;4.20;;;1.00;;
36189;SDS011;22232;50.914;13.858;2022-09-09T14:33:10;2.83;;;0.98;;
36189;SDS011;22232;50.914;13.858;2022-09-09T14:35:39;3.60;;;1.33;;
36189;SDS011;22232;50.914;13.858;2022-09-09T14:38:08;2.92;;;1.10;;
36189;SDS011;22232;50.914;13.858;2022-09-09T14:40:36;2.55;;;1.33;;
36189;SDS011;22232;50.914;13.858;2022-09-09T14:43:04;3.15;;;1.23;;
36189;SDS011;22232;50.914;13.858;2022-09-09T14:45:32;2.92;;;1.10;;
36189;SDS011;22232;50.914;13.858;2022-09-09T14:48:03;3.40;;;1.17;;
36189;SDS011;22232;50.914;13.858;2022-09-09T14:50:31;3.75;;;1.02;;
36189;SDS011;22232;50.914;13.858;2022-09-09T14:52:58;2.20;;;0.95;;
36189;SDS011;22232;50.914;13.858;2022-09-09T14:55:26;1.48;;;0.80;;
36189;SDS011;22232;50.914;13.858;2022-09-09T14:57:55;3.08;;;1.45;;
36189;SDS011;22232;50.914;13.858;2022-09-09T15:00:23;3.30;;;1.30;;
36189;SDS011;22232;50.914;13.858;2022-09-09T15:02:56;4.05;;;1.27;;
36189;SDS011;22232;50.914;13.858;2022-09-09T15:05:24;2.97;;;1.10;;
36189;SDS011;22232;50.914;13.858;2022-09-09T15:07:52;3.85;;;1.15;;
36189;SDS011;22232;50.914;13.858;2022-09-09T15:10:19;4.72;;;1.20;;
36189;SDS011;22232;50.914;13.858;2022-09-09T15:12:47;4.55;;;1.20;;
36189;SDS011;22232;50.914;13.858;2022-09-09T15:15:15;1.65;;;1.02;;
36189;SDS011;22232;50.914;13.858;2022-09-09T15:17:42;3.92;;;1.20;;
36189;SDS011;22232;50.914;13.858;2022-09-09T15:20:10;2.30;;;1.00;;
36189;SDS011;22232;50.914;13.858;2022-09-09T15:22:37;2.55;;;1.10;;
36189;SDS011;22232;50.914;13.858;2022-09-09T15:25:05;2.05;;;0.95;;
36189;SDS011;22232;50.914;13.858;2022-09-09T15:27:33;3.60;;;0.95;;
36189;SDS011;22232;50.914;13.858;2022-09-09T15:30:02;4.30;;;1.10;;
36189;SDS011;22232;50.914;13.858;2022-09-09T15:32:30;1.13;;;0.90;;
36189;SDS011;22232;50.914;13.858;2022-09-09T15:34:57;2.30;;;1.08;;
36189;SDS011;22232;50.914;13.858;2022-09-09T15:37:25;2.72;;;0.90;;
36189;SDS011;22232;50.914;13.858;2022-09-09T15:39:52;2.30;;;0.90;;
36189;SDS011;22232;50.914;13.858;2022-09-09T15:42:20;1.60;;;0.90;;
36189;SDS011;22232;50.914;13.858;2022-09-09T15:44:47;4.03;;;0.93;;
36189;SDS011;22232;50.914;13.858;2022-09-09T15:47:15;3.45;;;1.00;;
36189;SDS011;22232;50.914;13.858;2022-09-09T15:49:43;1.70;;;0.82;;
36189;SDS011;22232;50.914;13.858;2022-09-09T15:52:11;1.30;;;0.80;;
36189;SDS011;22232;50.914;13.858;2022-09-09T15:54:38;2.78;;;0.85;;
36189;SDS011;22232;50.914;13.858;2022-09-09T15:57:06;0.98;;;0.60;;
36189;SDS011;22232;50.914;13.858;2022-09-09T15:59:35;2.55;;;0.98;;
36189;SDS011;22232;50.914;13.858;2022-09-09T16:02:03;2.90;;;1.45;;
36189;SDS011;22232;50.914;13.858;2022-09-09T16:04:32;3.03;;;1.13;;
36189;SDS011;22232;50.914;13.858;2022-09-09T16:07:02;8.68;;;1.30;;
36189;SDS011;22232;50.914;13.858;2022-09-09T16:09:31;3.35;;;0.95;;
36189;SDS011;22232;50.914;13.858;2022-09-09T16:12:00;6.40;;;1.00;;
36189;SDS011;22232;50.914;13.858;2022-09-09T16:14:29;3.40;;;1.08;;
36189;SDS011;22232;50.914;13.858;2022-09-09T16:17:04;6.93;;;1.15;;
36189;SDS011;22232;50.914;13.858;2022-09-09T16:19:32;7.85;;;1.45;;
36189;SDS011;22232;50.914;13.858;2022-09-09T16:22:01;2.88;;;1.15;;
36189;SDS011;22232;50.914;13.858;2022-09-09T16:24:29;4.53;;;1.40;;
36189;SDS011;22232;50.914;13.858;2022-09-09T16:26:57;2.08;;;1.10;;
36189;SDS011;22232;50.914;13.858;2022-09-09T16:29:24;1.98;;;0.80;;
36189;SDS011;22232;50.914;13.858;2022-09-09T16:31:54;2.08;;;0.80;;
36189;SDS011;22232;50.914;13.858;2022-09-09T16:34:28;3.03;;;1.40;;
36189;SDS011;22232;50.914;13.858;2022-09-09T16:36:56;3.45;;;1.02;;
36189;SDS011;22232;50.914;13.858;2022-09-09T16:39:23;5.18;;;1.08;;
36189;SDS011;22232;50.914;13.858;2022-09-09T16:41:51;2.05;;;1.00;;
36189;SDS011;22232;50.914;13.858;2022-09-09T16:44:19;1.98;;;1.15;;
36189;SDS011;22232;50.914;13.858;2022-09-09T16:46:47;2.30;;;1.15;;
36189;SDS011;22232;50.914;13.858;2022-09-09T16:49:25;5.40;;;4.88;;
36189;SDS011;22232;50.914;13.858;2022-09-09T16:51:56;4.07;;;1.90;;
36189;SDS011;22232;50.914;13.858;2022-09-09T16:54:25;5.03;;;1.65;;
36189;SDS011;22232;50.914;13.858;2022-09-09T16:56:54;9.82;;;7.72;;
36189;SDS011;22232;50.914;13.858;2022-09-09T16:59:21;11.20;;;7.93;;
36189;SDS011;22232;50.914;13.858;2022-09-09T17:01:50;5.50;;;3.30;;
36189;SDS011;22232;50.914;13.858;2022-09-09T17:04:20;3.70;;;1.65;;
36189;SDS011;22232;50.914;13.858;2022-09-09T17:06:52;3.08;;;1.40;;
36189;SDS011;22232;50.914;13.858;2022-09-09T17:09:20;4.85;;;1.63;;
36189;SDS011;22232;50.914;13.858;2022-09-09T17:11:49;6.28;;;1.77;;
36189;SDS011;22232;50.914;13.858;2022-09-09T17:14:19;4.13;;;1.63;;
36189;SDS011;22232;50.914;13.858;2022-09-09T17:16:48;2.80;;;1.52;;
36189;SDS011;22232;50.914;13.858;2022-09-09T17:19:16;2.80;;;1.50;;